| time (UTC) | temp F | wind direction | speed MPH | gust MPH | rain 1hr in | rain 24hr in | rain mn in | humidity % | barometer mb |
| 20260906173104 | 75 | 262 | 3.0 | 9.0 | 0.00 | 0.00 | 0.00 | 72 | 1017.2 |
| 20260906171609 | 76 | 11 | 2.0 | 6.0 | 0.00 | 0.00 | 0.00 | 69 | 1017.3 |
| 20260906170107 | 76 | 54 | 0.0 | 3.0 | 0.00 | 0.00 | 0.00 | 66 | 1017.3 |
| 20260906164609 | 76 | 58 | 1.0 | 6.0 | 0.00 | 0.00 | 0.00 | 64 | 1017.3 |
| 20260906163104 | 76 | 104 | 0.0 | 6.0 | 0.00 | 0.00 | 0.00 | 66 | 1017.3 |
| 20260906161607 | 75 | 333 | 1.0 | 8.0 | 0.00 | 0.00 | 0.00 | 64 | 1017.5 |
| 20260906160106 | 75 | 61 | 1.0 | 7.0 | 0.00 | 0.00 | 0.00 | 68 | 1017.5 |
| 20260906154607 | 74 | 156 | 1.0 | 5.0 | 0.00 | 0.12 | 0.00 | 68 | 1017.5 |
| 20260906153105 | 74 | 64 | 2.0 | 6.0 | 0.00 | 0.12 | 0.00 | 69 | 1017.6 |
| 20260906151607 | 73 | 55 | 1.0 | 7.0 | 0.00 | 0.12 | 0.00 | 71 | 1017.6 |
| 20260906150109 | 72 | 75 | 1.0 | 3.0 | 0.00 | 0.12 | 0.00 | 72 | 1017.7 |
| 20260906144605 | 72 | 60 | 2.0 | 6.0 | 0.00 | 0.12 | 0.00 | 74 | 1017.6 |
| 20260906143113 | 71 | 108 | 0.0 | 4.0 | 0.00 | 0.12 | 0.00 | 78 | 1017.5 |
| 20260906141618 | 70 | 112 | 1.0 | 5.0 | 0.00 | 0.12 | 0.00 | 80 | 1017.5 |
| 20260906140107 | 70 | 98 | 2.0 | 5.0 | 0.00 | 0.12 | 0.00 | 81 | 1017.2 |
| 20260906134559 | 69 | 6 | 0.0 | 6.0 | 0.00 | 0.12 | 0.00 | 84 | 1017.2 |
| 20260906133112 | 66 | 0 | 0.0 | 4.0 | 0.00 | 0.12 | 0.00 | 95 | 1017.1 |
| 20260906131606 | 64 | 0 | 0.0 | 0.0 | 0.00 | 0.12 | 0.00 | 97 | 1017.2 |
| 20260906130104 | 62 | 0 | 0.0 | 0.0 | 0.00 | 0.12 | 0.00 | 97 | 1017.1 |
| 20260906124606 | 61 | 0 | 0.0 | 0.0 | 0.00 | 0.12 | 0.00 | 96 | 1016.9 |
| 20260906123114 | 59 | 0 | 0.0 | 0.0 | 0.00 | 0.12 | 0.00 | 96 | 1016.7 |
| 20260906121607 | 57 | 0 | 0.0 | 0.0 | 0.00 | 0.12 | 0.00 | 96 | 1016.6 |
| 20260906120147 | 56 | 0 | 0.0 | 0.0 | 0.00 | 0.12 | 0.00 | 96 | 1016.5 |
| 20260906114634 | 55 | 0 | 0.0 | 0.0 | 0.00 | 0.12 | 0.00 | 95 | 1016.5 |
| 20260906113102 | 55 | 0 | 0.0 | 0.0 | 0.00 | 0.12 | 0.00 | 95 | 1016.2 |
| 20260906111622 | 55 | 0 | 0.0 | 0.0 | 0.00 | 0.12 | 0.00 | 95 | 1015.9 |
| 20260906104602 | 54 | 0 | 0.0 | 0.0 | 0.00 | 0.12 | 0.00 | 95 | 1016.0 |
| 20260906103112 | 55 | 0 | 0.0 | 0.0 | 0.00 | 0.12 | 0.00 | 95 | 1015.9 |
| 20260906101603 | 55 | 0 | 0.0 | 0.0 | 0.00 | 0.12 | 0.00 | 95 | 1016.0 |
| 20260906100104 | 55 | 0 | 0.0 | 0.0 | 0.00 | 0.12 | 0.00 | 95 | 1015.9 |
| 20260906094605 | 55 | 0 | 0.0 | 0.0 | 0.00 | 0.12 | 0.00 | 95 | 1015.8 |
| 20260906093105 | 55 | 0 | 0.0 | 0.0 | 0.00 | 0.12 | 0.00 | 95 | 1015.8 |
| 20260906091607 | 55 | 0 | 0.0 | 0.0 | 0.00 | 0.12 | 0.00 | 95 | 1015.7 |
| 20260906090105 | 55 | 0 | 0.0 | 0.0 | 0.00 | 0.12 | 0.00 | 95 | 1015.8 |
| 20260906084613 | 55 | 0 | 0.0 | 0.0 | 0.00 | 0.12 | 0.00 | 95 | 1015.8 |
| 20260906083106 | 55 | 0 | 0.0 | 0.0 | 0.00 | 0.12 | 0.00 | 94 | 1015.4 |
| 20260906081605 | 55 | 0 | 0.0 | 0.0 | 0.00 | 0.12 | 0.00 | 94 | 1015.5 |
| 20260906080104 | 55 | 0 | 0.0 | 0.0 | 0.00 | 0.12 | 0.00 | 94 | 1015.3 |
| 20260906074602 | 56 | 0 | 0.0 | 0.0 | 0.00 | 0.12 | 0.00 | 94 | 1015.2 |
| 20260906073105 | 56 | 0 | 0.0 | 0.0 | 0.00 | 0.12 | 0.00 | 94 | 1015.0 |
| 20260906071605 | 56 | 0 | 0.0 | 0.0 | 0.00 | 0.12 | 0.00 | 94 | 1015.2 |
| 20260906070105 | 56 | 0 | 0.0 | 0.0 | 0.00 | 0.12 | 0.00 | 94 | 1015.0 |
| 20260906064604 | 56 | 0 | 0.0 | 0.0 | 0.00 | 0.12 | 0.00 | 94 | 1015.2 |
| 20260906063101 | 57 | 0 | 0.0 | 0.0 | 0.00 | 0.12 | 0.00 | 94 | 1015.2 |
| 20260906061612 | 57 | 0 | 0.0 | 0.0 | 0.00 | 0.12 | 0.00 | 94 | 1015.1 |
| 20260906060112 | 57 | 0 | 0.0 | 0.0 | 0.00 | 0.12 | 0.00 | 94 | 1015.1 |
| 20260906054632 | 57 | 0 | 0.0 | 0.0 | 0.00 | 0.12 | 0.00 | 93 | 1015.0 |
| 20260906053101 | 57 | 0 | 0.0 | 0.0 | 0.00 | 0.12 | 0.00 | 93 | 1015.0 |
| 20260906051602 | 58 | 0 | 0.0 | 0.0 | 0.00 | 0.12 | 0.00 | 93 | 1015.0 |
| 20260906050108 | 58 | 0 | 0.0 | 0.0 | 0.00 | 0.12 | 0.00 | 93 | 1015.1 |
| 20260906044604 | 58 | 0 | 0.0 | 0.0 | 0.00 | 0.12 | 0.00 | 92 | 1015.1 |
| 20260906043104 | 59 | 0 | 0.0 | 0.0 | 0.00 | 0.12 | 0.00 | 92 | 1015.0 |
| 20260906041605 | 59 | 0 | 0.0 | 0.0 | 0.00 | 0.12 | 0.00 | 92 | 1015.1 |
| 20260906040121 | 59 | 0 | 0.0 | 0.0 | 0.00 | 0.12 | 0.00 | 92 | 1015.3 |
| 20260906034604 | 59 | 0 | 0.0 | 0.0 | 0.00 | 0.12 | 0.12 | 91 | 1015.1 |
| 20260906033124 | 59 | 0 | 0.0 | 0.0 | 0.00 | 0.12 | 0.12 | 91 | 1015.0 |
| 20260906031618 | 59 | 0 | 0.0 | 0.0 | 0.00 | 0.12 | 0.12 | 90 | 1015.2 |
| 20260906030109 | 60 | 0 | 0.0 | 0.0 | 0.00 | 0.12 | 0.12 | 90 | 1015.1 |
| 20260906024610 | 60 | 0 | 0.0 | 0.0 | 0.00 | 0.12 | 0.12 | 89 | 1015.0 |
| 20260906023105 | 60 | 0 | 0.0 | 0.0 | 0.00 | 0.12 | 0.12 | 88 | 1015.0 |
| 20260906021615 | 61 | 0 | 0.0 | 0.0 | 0.00 | 0.12 | 0.12 | 87 | 1014.8 |
| 20260906020106 | 62 | 0 | 0.0 | 0.0 | 0.00 | 0.12 | 0.12 | 87 | 1014.6 |
| 20260906014603 | 62 | 0 | 0.0 | 0.0 | 0.00 | 0.12 | 0.12 | 86 | 1014.6 |
| 20260906013109 | 63 | 0 | 0.0 | 0.0 | 0.00 | 0.12 | 0.12 | 84 | 1014.5 |
| 20260906011606 | 63 | 0 | 0.0 | 0.0 | 0.00 | 0.12 | 0.12 | 82 | 1014.5 |
| 20260906010106 | 64 | 0 | 0.0 | 0.0 | 0.00 | 0.12 | 0.12 | 81 | 1014.4 |
| 20260906004607 | 65 | 0 | 0.0 | 0.0 | 0.00 | 0.12 | 0.12 | 79 | 1014.1 |
| 20260906003104 | 66 | 0 | 0.0 | 0.0 | 0.00 | 0.12 | 0.12 | 77 | 1014.1 |
| 20260906001605 | 68 | 0 | 0.0 | 0.0 | 0.00 | 0.12 | 0.12 | 73 | 1014.0 |
| 20260906000109 | 70 | 0 | 0.0 | 1.0 | 0.00 | 0.12 | 0.12 | 68 | 1014.0 |
| 20260905234607 | 71 | 0 | 0.0 | 3.0 | 0.00 | 0.12 | 0.12 | 66 | 1013.8 |
| 20260905233104 | 73 | 0 | 0.0 | 1.0 | 0.00 | 0.12 | 0.12 | 64 | 1013.8 |
| 20260905231608 | 74 | 117 | 0.0 | 2.0 | 0.00 | 0.12 | 0.12 | 62 | 1013.6 |
| 20260905230109 | 74 | 306 | 1.0 | 6.0 | 0.00 | 0.12 | 0.12 | 61 | 1013.6 |
| 20260905224611 | 74 | 49 | 2.0 | 8.0 | 0.00 | 0.12 | 0.12 | 64 | 1013.4 |
| 20260905223109 | 74 | 331 | 1.0 | 3.0 | 0.00 | 0.12 | 0.12 | 68 | 1013.5 |
| 20260905221605 | 74 | 84 | 3.0 | 7.0 | 0.00 | 0.12 | 0.12 | 69 | 1013.3 |
| 20260905220106 | 74 | 65 | 2.0 | 7.0 | 0.00 | 0.12 | 0.12 | 71 | 1013.2 |
| 20260905214606 | 74 | 323 | 1.0 | 6.0 | 0.00 | 0.12 | 0.12 | 71 | 1013.0 |
| 20260905213115 | 75 | 28 | 2.0 | 7.0 | 0.00 | 0.12 | 0.12 | 70 | 1012.8 |
| 20260905211612 | 75 | 46 | 3.0 | 7.0 | 0.00 | 0.12 | 0.12 | 72 | 1012.8 |
| 20260905210108 | 74 | 53 | 1.0 | 4.0 | 0.00 | 0.12 | 0.12 | 73 | 1012.9 |
| 20260905204618 | 74 | 1 | 2.0 | 5.0 | 0.00 | 0.12 | 0.12 | 74 | 1012.9 |
| 20260905203131 | 74 | 51 | 1.0 | 8.0 | 0.00 | 0.12 | 0.12 | 74 | 1013.0 |
| 20260905201613 | 75 | 326 | 3.0 | 8.0 | 0.00 | 0.12 | 0.12 | 73 | 1013.1 |
| 20260905200119 | 76 | 299 | 3.0 | 8.0 | 0.00 | 0.12 | 0.12 | 76 | 1013.1 |
| 20260905194612 | 77 | 336 | 2.0 | 9.0 | 0.00 | 0.12 | 0.12 | 75 | 1013.1 |
| 20260905193104 | 77 | 344 | 1.0 | 5.0 | 0.00 | 0.12 | 0.12 | 78 | 1013.0 |
| 20260905191606 | 77 | 311 | 1.0 | 6.0 | 0.00 | 0.12 | 0.12 | 78 | 1013.0 |
| 20260905190106 | 76 | 0 | 1.0 | 7.0 | 0.00 | 0.12 | 0.12 | 82 | 1012.9 |
| 20260905184611 | 75 | 64 | 2.0 | 7.0 | 0.00 | 0.12 | 0.12 | 82 | 1013.1 |
| 20260905183107 | 76 | 61 | 2.0 | 7.0 | 0.00 | 0.12 | 0.12 | 83 | 1013.3 |
| 20260905181603 | 76 | 71 | 3.0 | 8.0 | 0.00 | 0.12 | 0.12 | 82 | 1013.2 |
| 20260905180106 | 76 | 0 | 0.0 | 6.0 | 0.00 | 0.12 | 0.12 | 83 | 1013.3 |
| 20260905174607 | 75 | 51 | 0.0 | 3.0 | 0.00 | 0.13 | 0.12 | 84 | 1013.4 |